sensor_id;sensor_type;location;lat;lon;timestamp;P1;durP1;ratioP1;P2;durP2;ratioP2
23300;SDS011;11819;51.394;12.340;2022-09-25T00:00:11;18.63;;;16.63;;
23300;SDS011;11819;51.394;12.340;2022-09-25T00:02:37;20.83;;;16.48;;
23300;SDS011;11819;51.394;12.340;2022-09-25T00:05:03;20.27;;;16.80;;
23300;SDS011;11819;51.394;12.340;2022-09-25T00:07:29;20.45;;;16.45;;
23300;SDS011;11819;51.394;12.340;2022-09-25T00:09:54;19.15;;;16.88;;
23300;SDS011;11819;51.394;12.340;2022-09-25T00:12:20;21.35;;;18.52;;
23300;SDS011;11819;51.394;12.340;2022-09-25T00:14:49;24.58;;;20.10;;
23300;SDS011;11819;51.394;12.340;2022-09-25T00:17:16;22.10;;;18.00;;
23300;SDS011;11819;51.394;12.340;2022-09-25T00:19:42;22.67;;;17.90;;
23300;SDS011;11819;51.394;12.340;2022-09-25T00:22:19;20.23;;;17.30;;
23300;SDS011;11819;51.394;12.340;2022-09-25T00:24:46;22.88;;;19.27;;
23300;SDS011;11819;51.394;12.340;2022-09-25T00:27:12;21.50;;;17.35;;
23300;SDS011;11819;51.394;12.340;2022-09-25T00:29:39;20.08;;;17.95;;
23300;SDS011;11819;51.394;12.340;2022-09-25T00:32:06;21.58;;;17.83;;
23300;SDS011;11819;51.394;12.340;2022-09-25T00:34:33;22.55;;;18.05;;
23300;SDS011;11819;51.394;12.340;2022-09-25T00:36:59;22.33;;;18.83;;
23300;SDS011;11819;51.394;12.340;2022-09-25T00:39:24;26.08;;;21.13;;
23300;SDS011;11819;51.394;12.340;2022-09-25T00:41:51;20.98;;;18.67;;
23300;SDS011;11819;51.394;12.340;2022-09-25T00:48:08;22.25;;;19.23;;
23300;SDS011;11819;51.394;12.340;2022-09-25T00:50:48;21.58;;;19.27;;
23300;SDS011;11819;51.394;12.340;2022-09-25T00:53:21;23.00;;;19.67;;
23300;SDS011;11819;51.394;12.340;2022-09-25T00:55:54;22.15;;;19.75;;
23300;SDS011;11819;51.394;12.340;2022-09-25T00:58:22;23.17;;;19.50;;
23300;SDS011;11819;51.394;12.340;2022-09-25T01:00:51;22.25;;;18.58;;
23300;SDS011;11819;51.394;12.340;2022-09-25T01:03:18;27.25;;;20.08;;
23300;SDS011;11819;51.394;12.340;2022-09-25T01:05:45;24.45;;;20.25;;
23300;SDS011;11819;51.394;12.340;2022-09-25T01:08:14;21.88;;;19.35;;
23300;SDS011;11819;51.394;12.340;2022-09-25T01:10:43;20.58;;;18.38;;
23300;SDS011;11819;51.394;12.340;2022-09-25T01:13:09;20.63;;;17.45;;
23300;SDS011;11819;51.394;12.340;2022-09-25T01:18:27;19.70;;;16.50;;
23300;SDS011;11819;51.394;12.340;2022-09-25T01:29:29;21.88;;;17.63;;
23300;SDS011;11819;51.394;12.340;2022-09-25T01:32:06;22.05;;;18.30;;
23300;SDS011;11819;51.394;12.340;2022-09-25T01:37:37;20.88;;;17.85;;
23300;SDS011;11819;51.394;12.340;2022-09-25T01:40:59;18.60;;;16.50;;
23300;SDS011;11819;51.394;12.340;2022-09-25T01:43:56;19.58;;;17.02;;
23300;SDS011;11819;51.394;12.340;2022-09-25T01:46:33;20.38;;;17.42;;
23300;SDS011;11819;51.394;12.340;2022-09-25T01:49:07;18.90;;;16.88;;
23300;SDS011;11819;51.394;12.340;2022-09-25T01:51:39;21.85;;;18.77;;
23300;SDS011;11819;51.394;12.340;2022-09-25T01:54:13;25.02;;;20.67;;
23300;SDS011;11819;51.394;12.340;2022-09-25T01:56:46;23.73;;;18.80;;
23300;SDS011;11819;51.394;12.340;2022-09-25T01:59:29;21.27;;;18.55;;
23300;SDS011;11819;51.394;12.340;2022-09-25T02:02:18;24.15;;;19.77;;
23300;SDS011;11819;51.394;12.340;2022-09-25T02:07:36;25.98;;;22.20;;
23300;SDS011;11819;51.394;12.340;2022-09-25T02:10:09;25.40;;;21.90;;
23300;SDS011;11819;51.394;12.340;2022-09-25T02:12:42;26.90;;;21.63;;
23300;SDS011;11819;51.394;12.340;2022-09-25T02:15:22;25.58;;;20.98;;
23300;SDS011;11819;51.394;12.340;2022-09-25T02:18:03;24.27;;;20.35;;
23300;SDS011;11819;51.394;12.340;2022-09-25T02:21:12;21.65;;;18.77;;
23300;SDS011;11819;51.394;12.340;2022-09-25T02:23:51;21.10;;;17.90;;
23300;SDS011;11819;51.394;12.340;2022-09-25T02:26:29;22.20;;;18.42;;
23300;SDS011;11819;51.394;12.340;2022-09-25T02:28:56;21.85;;;18.40;;
23300;SDS011;11819;51.394;12.340;2022-09-25T02:31:24;23.23;;;18.05;;
23300;SDS011;11819;51.394;12.340;2022-09-25T02:33:55;21.92;;;18.33;;
23300;SDS011;11819;51.394;12.340;2022-09-25T02:36:22;22.50;;;17.70;;
23300;SDS011;11819;51.394;12.340;2022-09-25T02:38:48;23.13;;;19.27;;
23300;SDS011;11819;51.394;12.340;2022-09-25T02:44:29;23.25;;;20.13;;
23300;SDS011;11819;51.394;12.340;2022-09-25T02:47:01;24.63;;;20.75;;
23300;SDS011;11819;51.394;12.340;2022-09-25T02:49:54;23.23;;;19.77;;
23300;SDS011;11819;51.394;12.340;2022-09-25T02:52:33;25.75;;;21.38;;
23300;SDS011;11819;51.394;12.340;2022-09-25T02:55:20;25.00;;;21.60;;
23300;SDS011;11819;51.394;12.340;2022-09-25T02:58:12;24.52;;;21.25;;
23300;SDS011;11819;51.394;12.340;2022-09-25T03:00:41;23.48;;;20.17;;
23300;SDS011;11819;51.394;12.340;2022-09-25T03:03:09;25.60;;;20.77;;
23300;SDS011;11819;51.394;12.340;2022-09-25T03:05:38;24.33;;;20.20;;
23300;SDS011;11819;51.394;12.340;2022-09-25T03:08:05;22.20;;;19.55;;
23300;SDS011;11819;51.394;12.340;2022-09-25T03:10:50;25.17;;;19.92;;
23300;SDS011;11819;51.394;12.340;2022-09-25T03:13:17;26.73;;;22.05;;
23300;SDS011;11819;51.394;12.340;2022-09-25T03:15:47;25.30;;;20.10;;
23300;SDS011;11819;51.394;12.340;2022-09-25T03:18:16;23.23;;;19.80;;
23300;SDS011;11819;51.394;12.340;2022-09-25T03:20:42;24.98;;;21.45;;
23300;SDS011;11819;51.394;12.340;2022-09-25T03:23:08;24.73;;;21.08;;
23300;SDS011;11819;51.394;12.340;2022-09-25T03:25:35;25.50;;;20.52;;
23300;SDS011;11819;51.394;12.340;2022-09-25T03:28:01;24.98;;;19.85;;
23300;SDS011;11819;51.394;12.340;2022-09-25T03:30:27;25.20;;;19.85;;
23300;SDS011;11819;51.394;12.340;2022-09-25T03:32:53;22.75;;;19.58;;
23300;SDS011;11819;51.394;12.340;2022-09-25T03:35:19;24.58;;;20.17;;
23300;SDS011;11819;51.394;12.340;2022-09-25T03:37:44;23.05;;;19.75;;
23300;SDS011;11819;51.394;12.340;2022-09-25T03:40:10;23.95;;;20.15;;
23300;SDS011;11819;51.394;12.340;2022-09-25T03:42:36;22.20;;;19.42;;
23300;SDS011;11819;51.394;12.340;2022-09-25T03:45:02;24.45;;;20.85;;
23300;SDS011;11819;51.394;12.340;2022-09-25T03:47:28;23.20;;;20.33;;
23300;SDS011;11819;51.394;12.340;2022-09-25T03:49:53;22.92;;;20.42;;
23300;SDS011;11819;51.394;12.340;2022-09-25T03:52:19;23.42;;;20.52;;
23300;SDS011;11819;51.394;12.340;2022-09-25T03:54:45;21.02;;;18.70;;
23300;SDS011;11819;51.394;12.340;2022-09-25T03:57:11;24.60;;;19.88;;
23300;SDS011;11819;51.394;12.340;2022-09-25T03:59:37;25.95;;;21.58;;
23300;SDS011;11819;51.394;12.340;2022-09-25T04:02:03;23.70;;;20.80;;
23300;SDS011;11819;51.394;12.340;2022-09-25T04:04:28;24.92;;;20.70;;
23300;SDS011;11819;51.394;12.340;2022-09-25T04:06:54;26.55;;;21.63;;
23300;SDS011;11819;51.394;12.340;2022-09-25T04:09:20;26.73;;;21.30;;
23300;SDS011;11819;51.394;12.340;2022-09-25T04:11:45;24.85;;;20.42;;
23300;SDS011;11819;51.394;12.340;2022-09-25T04:14:11;24.38;;;21.45;;
23300;SDS011;11819;51.394;12.340;2022-09-25T04:16:36;27.45;;;21.60;;
23300;SDS011;11819;51.394;12.340;2022-09-25T04:19:02;22.92;;;19.17;;
23300;SDS011;11819;51.394;12.340;2022-09-25T04:21:28;24.35;;;20.70;;
23300;SDS011;11819;51.394;12.340;2022-09-25T04:23:53;23.65;;;20.20;;
23300;SDS011;11819;51.394;12.340;2022-09-25T04:26:37;24.23;;;20.60;;
23300;SDS011;11819;51.394;12.340;2022-09-25T04:29:03;25.63;;;21.30;;
23300;SDS011;11819;51.394;12.340;2022-09-25T04:31:29;23.73;;;20.20;;
23300;SDS011;11819;51.394;12.340;2022-09-25T04:33:56;25.00;;;21.13;;
23300;SDS011;11819;51.394;12.340;2022-09-25T04:36:21;23.30;;;20.02;;
23300;SDS011;11819;51.394;12.340;2022-09-25T04:38:47;23.95;;;20.58;;
23300;SDS011;11819;51.394;12.340;2022-09-25T04:41:13;27.02;;;21.83;;
23300;SDS011;11819;51.394;12.340;2022-09-25T04:43:40;25.38;;;20.90;;
23300;SDS011;11819;51.394;12.340;2022-09-25T04:46:07;26.30;;;21.05;;
23300;SDS011;11819;51.394;12.340;2022-09-25T04:48:35;25.30;;;21.27;;
23300;SDS011;11819;51.394;12.340;2022-09-25T04:51:01;25.27;;;20.92;;
23300;SDS011;11819;51.394;12.340;2022-09-25T04:53:28;27.70;;;20.83;;
23300;SDS011;11819;51.394;12.340;2022-09-25T04:56:04;24.25;;;21.35;;
23300;SDS011;11819;51.394;12.340;2022-09-25T04:58:32;26.35;;;22.20;;
23300;SDS011;11819;51.394;12.340;2022-09-25T05:01:03;27.52;;;22.67;;
23300;SDS011;11819;51.394;12.340;2022-09-25T05:03:33;27.17;;;21.70;;
23300;SDS011;11819;51.394;12.340;2022-09-25T05:05:59;25.75;;;21.58;;
23300;SDS011;11819;51.394;12.340;2022-09-25T05:08:25;29.77;;;23.50;;
23300;SDS011;11819;51.394;12.340;2022-09-25T05:10:51;29.45;;;22.83;;
23300;SDS011;11819;51.394;12.340;2022-09-25T05:13:17;27.17;;;22.00;;
23300;SDS011;11819;51.394;12.340;2022-09-25T05:15:42;29.58;;;24.48;;
23300;SDS011;11819;51.394;12.340;2022-09-25T05:18:15;30.95;;;23.80;;
23300;SDS011;11819;51.394;12.340;2022-09-25T05:20:44;28.13;;;23.00;;
23300;SDS011;11819;51.394;12.340;2022-09-25T05:23:10;26.25;;;21.70;;
23300;SDS011;11819;51.394;12.340;2022-09-25T05:25:36;31.00;;;23.40;;
23300;SDS011;11819;51.394;12.340;2022-09-25T05:28:01;32.85;;;24.45;;
23300;SDS011;11819;51.394;12.340;2022-09-25T05:30:28;26.52;;;22.02;;
23300;SDS011;11819;51.394;12.340;2022-09-25T05:32:56;27.52;;;22.77;;
23300;SDS011;11819;51.394;12.340;2022-09-25T05:35:22;28.73;;;23.23;;
23300;SDS011;11819;51.394;12.340;2022-09-25T05:37:48;26.40;;;22.17;;
23300;SDS011;11819;51.394;12.340;2022-09-25T05:40:15;28.65;;;23.38;;
23300;SDS011;11819;51.394;12.340;2022-09-25T05:42:42;28.60;;;23.10;;
23300;SDS011;11819;51.394;12.340;2022-09-25T05:45:11;29.02;;;23.95;;
23300;SDS011;11819;51.394;12.340;2022-09-25T05:47:37;26.90;;;23.20;;
23300;SDS011;11819;51.394;12.340;2022-09-25T05:50:04;28.23;;;23.13;;
23300;SDS011;11819;51.394;12.340;2022-09-25T05:52:30;28.92;;;23.30;;
23300;SDS011;11819;51.394;12.340;2022-09-25T05:54:56;27.10;;;23.25;;
23300;SDS011;11819;51.394;12.340;2022-09-25T05:57:21;27.48;;;23.17;;
23300;SDS011;11819;51.394;12.340;2022-09-25T05:59:48;29.13;;;22.60;;
23300;SDS011;11819;51.394;12.340;2022-09-25T06:02:14;28.10;;;22.30;;
23300;SDS011;11819;51.394;12.340;2022-09-25T06:04:40;29.02;;;24.13;;
23300;SDS011;11819;51.394;12.340;2022-09-25T06:07:06;31.88;;;24.65;;
23300;SDS011;11819;51.394;12.340;2022-09-25T06:09:34;29.23;;;23.35;;
23300;SDS011;11819;51.394;12.340;2022-09-25T06:12:00;30.95;;;24.45;;
23300;SDS011;11819;51.394;12.340;2022-09-25T06:14:26;30.60;;;24.50;;
23300;SDS011;11819;51.394;12.340;2022-09-25T06:16:52;30.02;;;25.13;;
23300;SDS011;11819;51.394;12.340;2022-09-25T06:19:18;28.92;;;24.55;;
23300;SDS011;11819;51.394;12.340;2022-09-25T06:21:44;30.52;;;24.30;;
23300;SDS011;11819;51.394;12.340;2022-09-25T06:24:11;30.50;;;24.65;;
23300;SDS011;11819;51.394;12.340;2022-09-25T06:26:37;32.63;;;24.83;;
23300;SDS011;11819;51.394;12.340;2022-09-25T06:29:03;32.00;;;24.35;;
23300;SDS011;11819;51.394;12.340;2022-09-25T06:31:31;30.83;;;25.67;;
23300;SDS011;11819;51.394;12.340;2022-09-25T06:33:58;31.85;;;25.13;;
23300;SDS011;11819;51.394;12.340;2022-09-25T06:36:23;31.45;;;25.23;;
23300;SDS011;11819;51.394;12.340;2022-09-25T06:38:52;31.65;;;25.08;;
23300;SDS011;11819;51.394;12.340;2022-09-25T06:41:18;32.42;;;25.67;;
23300;SDS011;11819;51.394;12.340;2022-09-25T06:43:47;33.10;;;26.75;;
23300;SDS011;11819;51.394;12.340;2022-09-25T06:46:14;32.35;;;26.45;;
23300;SDS011;11819;51.394;12.340;2022-09-25T06:48:40;35.08;;;26.90;;
23300;SDS011;11819;51.394;12.340;2022-09-25T06:51:07;31.42;;;26.58;;
23300;SDS011;11819;51.394;12.340;2022-09-25T06:53:33;32.58;;;27.50;;
23300;SDS011;11819;51.394;12.340;2022-09-25T06:55:58;33.72;;;26.35;;
23300;SDS011;11819;51.394;12.340;2022-09-25T06:58:25;33.00;;;27.17;;
23300;SDS011;11819;51.394;12.340;2022-09-25T07:00:52;33.55;;;27.02;;
23300;SDS011;11819;51.394;12.340;2022-09-25T07:03:18;34.15;;;26.13;;
23300;SDS011;11819;51.394;12.340;2022-09-25T07:06:04;31.52;;;25.45;;
23300;SDS011;11819;51.394;12.340;2022-09-25T07:08:31;31.95;;;25.70;;
23300;SDS011;11819;51.394;12.340;2022-09-25T07:10:57;33.20;;;26.30;;
23300;SDS011;11819;51.394;12.340;2022-09-25T07:13:25;32.05;;;27.08;;
23300;SDS011;11819;51.394;12.340;2022-09-25T07:16:02;32.05;;;26.35;;
23300;SDS011;11819;51.394;12.340;2022-09-25T07:18:30;32.95;;;26.55;;
23300;SDS011;11819;51.394;12.340;2022-09-25T07:21:00;31.75;;;26.05;;
23300;SDS011;11819;51.394;12.340;2022-09-25T07:23:27;34.88;;;26.70;;
23300;SDS011;11819;51.394;12.340;2022-09-25T07:25:55;30.88;;;25.50;;
23300;SDS011;11819;51.394;12.340;2022-09-25T07:28:22;34.03;;;26.02;;
23300;SDS011;11819;51.394;12.340;2022-09-25T07:30:48;35.03;;;27.15;;
23300;SDS011;11819;51.394;12.340;2022-09-25T07:33:13;33.75;;;26.80;;
23300;SDS011;11819;51.394;12.340;2022-09-25T07:35:40;36.38;;;26.98;;
23300;SDS011;11819;51.394;12.340;2022-09-25T07:38:05;36.60;;;29.00;;
23300;SDS011;11819;51.394;12.340;2022-09-25T07:40:31;32.45;;;26.83;;
23300;SDS011;11819;51.394;12.340;2022-09-25T07:43:02;32.38;;;27.58;;
23300;SDS011;11819;51.394;12.340;2022-09-25T07:45:30;35.03;;;28.35;;
23300;SDS011;11819;51.394;12.340;2022-09-25T07:47:56;39.05;;;29.08;;
23300;SDS011;11819;51.394;12.340;2022-09-25T07:50:24;33.25;;;26.55;;
23300;SDS011;11819;51.394;12.340;2022-09-25T07:52:51;37.45;;;28.60;;
23300;SDS011;11819;51.394;12.340;2022-09-25T07:55:17;35.58;;;28.13;;
23300;SDS011;11819;51.394;12.340;2022-09-25T07:57:43;33.72;;;27.58;;
23300;SDS011;11819;51.394;12.340;2022-09-25T08:00:09;38.58;;;29.25;;
23300;SDS011;11819;51.394;12.340;2022-09-25T08:02:37;33.08;;;26.95;;
23300;SDS011;11819;51.394;12.340;2022-09-25T08:05:03;36.65;;;29.42;;
23300;SDS011;11819;51.394;12.340;2022-09-25T08:07:28;34.72;;;28.58;;
23300;SDS011;11819;51.394;12.340;2022-09-25T08:09:54;35.53;;;28.15;;
23300;SDS011;11819;51.394;12.340;2022-09-25T08:12:20;34.53;;;27.63;;
23300;SDS011;11819;51.394;12.340;2022-09-25T08:14:52;35.30;;;28.95;;
23300;SDS011;11819;51.394;12.340;2022-09-25T08:17:18;36.70;;;28.58;;
23300;SDS011;11819;51.394;12.340;2022-09-25T08:19:44;34.60;;;27.35;;
23300;SDS011;11819;51.394;12.340;2022-09-25T08:22:10;40.75;;;28.65;;
23300;SDS011;11819;51.394;12.340;2022-09-25T08:24:36;34.78;;;28.13;;
23300;SDS011;11819;51.394;12.340;2022-09-25T08:27:02;37.58;;;28.65;;
23300;SDS011;11819;51.394;12.340;2022-09-25T08:29:28;33.75;;;27.88;;
23300;SDS011;11819;51.394;12.340;2022-09-25T08:31:55;41.13;;;29.00;;
23300;SDS011;11819;51.394;12.340;2022-09-25T08:34:21;34.80;;;27.90;;
23300;SDS011;11819;51.394;12.340;2022-09-25T08:36:49;33.08;;;27.73;;
23300;SDS011;11819;51.394;12.340;2022-09-25T08:39:15;38.70;;;28.77;;
23300;SDS011;11819;51.394;12.340;2022-09-25T08:41:45;34.15;;;27.95;;
23300;SDS011;11819;51.394;12.340;2022-09-25T08:44:19;34.28;;;27.15;;
23300;SDS011;11819;51.394;12.340;2022-09-25T08:47:12;36.92;;;28.60;;
23300;SDS011;11819;51.394;12.340;2022-09-25T08:50:13;34.63;;;27.25;;
23300;SDS011;11819;51.394;12.340;2022-09-25T08:52:43;32.30;;;26.00;;
23300;SDS011;11819;51.394;12.340;2022-09-25T08:55:15;36.25;;;27.08;;
23300;SDS011;11819;51.394;12.340;2022-09-25T08:58:14;34.58;;;24.35;;
23300;SDS011;11819;51.394;12.340;2022-09-25T09:00:53;30.13;;;23.70;;
23300;SDS011;11819;51.394;12.340;2022-09-25T09:03:22;30.38;;;23.35;;
23300;SDS011;11819;51.394;12.340;2022-09-25T09:05:55;32.95;;;23.60;;
23300;SDS011;11819;51.394;12.340;2022-09-25T09:08:28;29.30;;;22.95;;
23300;SDS011;11819;51.394;12.340;2022-09-25T09:10:58;31.75;;;23.02;;
23300;SDS011;11819;51.394;12.340;2022-09-25T09:13:37;30.23;;;24.02;;
23300;SDS011;11819;51.394;12.340;2022-09-25T09:16:18;30.75;;;22.98;;
23300;SDS011;11819;51.394;12.340;2022-09-25T09:18:52;31.38;;;23.08;;
23300;SDS011;11819;51.394;12.340;2022-09-25T09:21:24;28.42;;;21.83;;
23300;SDS011;11819;51.394;12.340;2022-09-25T09:26:46;30.25;;;21.17;;
23300;SDS011;11819;51.394;12.340;2022-09-25T09:35:10;29.42;;;20.98;;
23300;SDS011;11819;51.394;12.340;2022-09-25T09:37:47;28.55;;;20.30;;
23300;SDS011;11819;51.394;12.340;2022-09-25T09:40:50;29.90;;;23.02;;
23300;SDS011;11819;51.394;12.340;2022-09-25T09:43:40;27.67;;;21.52;;
23300;SDS011;11819;51.394;12.340;2022-09-25T09:52:07;28.88;;;21.75;;
23300;SDS011;11819;51.394;12.340;2022-09-25T09:57:23;32.00;;;22.27;;
23300;SDS011;11819;51.394;12.340;2022-09-25T09:59:52;29.52;;;22.35;;
23300;SDS011;11819;51.394;12.340;2022-09-25T10:05:18;29.60;;;22.48;;
23300;SDS011;11819;51.394;12.340;2022-09-25T10:07:46;30.75;;;22.52;;
23300;SDS011;11819;51.394;12.340;2022-09-25T10:10:14;28.77;;;21.23;;
23300;SDS011;11819;51.394;12.340;2022-09-25T10:12:51;28.15;;;20.65;;
23300;SDS011;11819;51.394;12.340;2022-09-25T10:18:23;28.83;;;20.75;;
23300;SDS011;11819;51.394;12.340;2022-09-25T10:20:56;27.40;;;21.02;;
23300;SDS011;11819;51.394;12.340;2022-09-25T10:23:34;29.20;;;20.92;;
23300;SDS011;11819;51.394;12.340;2022-09-25T10:28:51;28.60;;;22.42;;
23300;SDS011;11819;51.394;12.340;2022-09-25T10:31:18;29.83;;;21.77;;
23300;SDS011;11819;51.394;12.340;2022-09-25T10:34:05;29.65;;;22.08;;
23300;SDS011;11819;51.394;12.340;2022-09-25T10:36:45;29.33;;;22.88;;
23300;SDS011;11819;51.394;12.340;2022-09-25T10:39:24;30.25;;;23.05;;
23300;SDS011;11819;51.394;12.340;2022-09-25T10:41:58;32.38;;;23.85;;
23300;SDS011;11819;51.394;12.340;2022-09-25T10:44:33;32.08;;;23.10;;
23300;SDS011;11819;51.394;12.340;2022-09-25T10:50:12;30.33;;;21.85;;
23300;SDS011;11819;51.394;12.340;2022-09-25T10:52:51;30.95;;;23.88;;
23300;SDS011;11819;51.394;12.340;2022-09-25T10:55:24;32.17;;;23.15;;
23300;SDS011;11819;51.394;12.340;2022-09-25T11:00:42;30.73;;;23.98;;
23300;SDS011;11819;51.394;12.340;2022-09-25T11:03:18;26.90;;;21.33;;
23300;SDS011;11819;51.394;12.340;2022-09-25T11:06:09;30.75;;;23.17;;
23300;SDS011;11819;51.394;12.340;2022-09-25T11:08:44;27.70;;;22.02;;
23300;SDS011;11819;51.394;12.340;2022-09-25T11:11:19;28.08;;;22.27;;
23300;SDS011;11819;51.394;12.340;2022-09-25T11:13:48;28.23;;;22.88;;
23300;SDS011;11819;51.394;12.340;2022-09-25T11:16:18;26.77;;;21.38;;
23300;SDS011;11819;51.394;12.340;2022-09-25T11:18:48;25.83;;;22.15;;
23300;SDS011;11819;51.394;12.340;2022-09-25T11:26:26;27.10;;;22.10;;
23300;SDS011;11819;51.394;12.340;2022-09-25T11:31:49;28.92;;;21.80;;
23300;SDS011;11819;51.394;12.340;2022-09-25T11:34:48;24.77;;;20.05;;
23300;SDS011;11819;51.394;12.340;2022-09-25T11:39:50;25.75;;;19.00;;
23300;SDS011;11819;51.394;12.340;2022-09-25T11:43:03;24.85;;;18.73;;
23300;SDS011;11819;51.394;12.340;2022-09-25T11:48:44;24.90;;;19.02;;
23300;SDS011;11819;51.394;12.340;2022-09-25T11:51:22;27.50;;;19.73;;
23300;SDS011;11819;51.394;12.340;2022-09-25T11:54:17;24.80;;;20.00;;
23300;SDS011;11819;51.394;12.340;2022-09-25T12:02:43;23.98;;;18.15;;
23300;SDS011;11819;51.394;12.340;2022-09-25T12:11:23;20.27;;;16.05;;
23300;SDS011;11819;51.394;12.340;2022-09-25T12:14:02;19.85;;;15.98;;
23300;SDS011;11819;51.394;12.340;2022-09-25T12:21:47;19.15;;;15.57;;
23300;SDS011;11819;51.394;12.340;2022-09-25T12:27:02;21.00;;;15.77;;
23300;SDS011;11819;51.394;12.340;2022-09-25T12:29:53;23.10;;;16.27;;
23300;SDS011;11819;51.394;12.340;2022-09-25T12:32:45;19.55;;;16.17;;
23300;SDS011;11819;51.394;12.340;2022-09-25T12:35:41;19.35;;;14.73;;
23300;SDS011;11819;51.394;12.340;2022-09-25T12:40:47;19.65;;;16.20;;
23300;SDS011;11819;51.394;12.340;2022-09-25T12:43:32;20.98;;;16.10;;
23300;SDS011;11819;51.394;12.340;2022-09-25T12:46:21;18.55;;;15.93;;
23300;SDS011;11819;51.394;12.340;2022-09-25T12:49:13;18.58;;;15.15;;
23300;SDS011;11819;51.394;12.340;2022-09-25T12:51:51;19.13;;;15.20;;
23300;SDS011;11819;51.394;12.340;2022-09-25T12:54:23;17.42;;;13.95;;
23300;SDS011;11819;51.394;12.340;2022-09-25T12:57:59;18.63;;;15.00;;
23300;SDS011;11819;51.394;12.340;2022-09-25T13:00:25;19.02;;;14.35;;
23300;SDS011;11819;51.394;12.340;2022-09-25T13:02:59;15.10;;;13.10;;
23300;SDS011;11819;51.394;12.340;2022-09-25T13:05:47;15.95;;;12.90;;
23300;SDS011;11819;51.394;12.340;2022-09-25T13:08:43;15.98;;;14.15;;
23300;SDS011;11819;51.394;12.340;2022-09-25T13:14:11;16.50;;;13.43;;
23300;SDS011;11819;51.394;12.340;2022-09-25T13:16:46;18.38;;;13.68;;
23300;SDS011;11819;51.394;12.340;2022-09-25T13:19:30;15.45;;;13.52;;
23300;SDS011;11819;51.394;12.340;2022-09-25T13:22:00;16.23;;;13.07;;
23300;SDS011;11819;51.394;12.340;2022-09-25T13:24:44;16.67;;;14.88;;
23300;SDS011;11819;51.394;12.340;2022-09-25T13:27:17;14.90;;;13.10;;
23300;SDS011;11819;51.394;12.340;2022-09-25T13:29:49;14.90;;;13.38;;
23300;SDS011;11819;51.394;12.340;2022-09-25T13:32:20;14.23;;;12.65;;
23300;SDS011;11819;51.394;12.340;2022-09-25T13:34:50;13.65;;;11.85;;
23300;SDS011;11819;51.394;12.340;2022-09-25T13:37:21;12.65;;;11.35;;
23300;SDS011;11819;51.394;12.340;2022-09-25T13:39:53;13.85;;;12.02;;
23300;SDS011;11819;51.394;12.340;2022-09-25T13:42:38;14.27;;;12.82;;
23300;SDS011;11819;51.394;12.340;2022-09-25T13:48:02;16.08;;;12.48;;
23300;SDS011;11819;51.394;12.340;2022-09-25T13:50:42;13.65;;;11.93;;
23300;SDS011;11819;51.394;12.340;2022-09-25T13:56:03;14.20;;;11.57;;
23300;SDS011;11819;51.394;12.340;2022-09-25T13:58:30;14.98;;;10.50;;
23300;SDS011;11819;51.394;12.340;2022-09-25T14:01:30;12.75;;;10.73;;
23300;SDS011;11819;51.394;12.340;2022-09-25T14:03:59;12.45;;;10.50;;
23300;SDS011;11819;51.394;12.340;2022-09-25T14:06:26;12.25;;;10.30;;
23300;SDS011;11819;51.394;12.340;2022-09-25T14:08:57;11.75;;;9.48;;
23300;SDS011;11819;51.394;12.340;2022-09-25T14:11:32;9.85;;;8.82;;
23300;SDS011;11819;51.394;12.340;2022-09-25T14:14:03;10.43;;;8.75;;
23300;SDS011;11819;51.394;12.340;2022-09-25T14:16:54;9.82;;;8.45;;
23300;SDS011;11819;51.394;12.340;2022-09-25T14:19:28;10.70;;;9.18;;
23300;SDS011;11819;51.394;12.340;2022-09-25T14:21:56;10.48;;;8.75;;
23300;SDS011;11819;51.394;12.340;2022-09-25T14:24:25;10.85;;;9.20;;
23300;SDS011;11819;51.394;12.340;2022-09-25T14:26:56;10.32;;;8.90;;
23300;SDS011;11819;51.394;12.340;2022-09-25T14:29:44;11.77;;;9.43;;
23300;SDS011;11819;51.394;12.340;2022-09-25T14:32:13;10.80;;;9.30;;
23300;SDS011;11819;51.394;12.340;2022-09-25T14:34:52;11.35;;;9.35;;
23300;SDS011;11819;51.394;12.340;2022-09-25T14:40:21;11.93;;;9.77;;
23300;SDS011;11819;51.394;12.340;2022-09-25T14:48:26;10.50;;;8.60;;
23300;SDS011;11819;51.394;12.340;2022-09-25T14:50:56;12.35;;;8.95;;
23300;SDS011;11819;51.394;12.340;2022-09-25T14:53:27;9.45;;;8.00;;
23300;SDS011;11819;51.394;12.340;2022-09-25T14:55:56;10.13;;;8.38;;
23300;SDS011;11819;51.394;12.340;2022-09-25T14:58:24;10.05;;;8.18;;
23300;SDS011;11819;51.394;12.340;2022-09-25T15:00:52;10.10;;;8.23;;
23300;SDS011;11819;51.394;12.340;2022-09-25T15:03:29;10.35;;;8.38;;
23300;SDS011;11819;51.394;12.340;2022-09-25T15:06:00;12.45;;;8.82;;
23300;SDS011;11819;51.394;12.340;2022-09-25T15:11:01;10.45;;;8.00;;
23300;SDS011;11819;51.394;12.340;2022-09-25T15:13:36;9.85;;;8.35;;
23300;SDS011;11819;51.394;12.340;2022-09-25T15:16:02;11.32;;;8.57;;
23300;SDS011;11819;51.394;12.340;2022-09-25T15:18:51;10.38;;;8.63;;
23300;SDS011;11819;51.394;12.340;2022-09-25T15:21:21;13.45;;;8.57;;
23300;SDS011;11819;51.394;12.340;2022-09-25T15:23:50;10.02;;;8.38;;
23300;SDS011;11819;51.394;12.340;2022-09-25T15:26:17;10.60;;;8.48;;
23300;SDS011;11819;51.394;12.340;2022-09-25T15:28:43;10.98;;;8.52;;
23300;SDS011;11819;51.394;12.340;2022-09-25T15:31:09;12.52;;;8.50;;
23300;SDS011;11819;51.394;12.340;2022-09-25T15:33:36;10.68;;;8.27;;
23300;SDS011;11819;51.394;12.340;2022-09-25T15:36:13;10.13;;;8.18;;
23300;SDS011;11819;51.394;12.340;2022-09-25T15:38:41;11.30;;;8.77;;
23300;SDS011;11819;51.394;12.340;2022-09-25T15:41:11;9.85;;;8.57;;
23300;SDS011;11819;51.394;12.340;2022-09-25T15:43:45;11.15;;;9.18;;
23300;SDS011;11819;51.394;12.340;2022-09-25T15:46:26;11.73;;;9.88;;
23300;SDS011;11819;51.394;12.340;2022-09-25T15:49:03;11.52;;;9.15;;
23300;SDS011;11819;51.394;12.340;2022-09-25T15:51:30;15.13;;;10.43;;
23300;SDS011;11819;51.394;12.340;2022-09-25T15:54:02;12.13;;;9.60;;
23300;SDS011;11819;51.394;12.340;2022-09-25T15:56:35;12.90;;;9.75;;
23300;SDS011;11819;51.394;12.340;2022-09-25T16:01:45;11.98;;;9.18;;
23300;SDS011;11819;51.394;12.340;2022-09-25T16:04:30;13.15;;;9.10;;
23300;SDS011;11819;51.394;12.340;2022-09-25T16:09:59;11.90;;;8.45;;
23300;SDS011;11819;51.394;12.340;2022-09-25T16:14:54;11.90;;;8.65;;
23300;SDS011;11819;51.394;12.340;2022-09-25T16:17:22;12.77;;;9.43;;
23300;SDS011;11819;51.394;12.340;2022-09-25T16:22:50;11.43;;;8.35;;
23300;SDS011;11819;51.394;12.340;2022-09-25T16:25:20;13.00;;;8.68;;
23300;SDS011;11819;51.394;12.340;2022-09-25T16:27:49;15.27;;;10.40;;
23300;SDS011;11819;51.394;12.340;2022-09-25T16:30:18;12.50;;;9.20;;
23300;SDS011;11819;51.394;12.340;2022-09-25T16:32:53;15.77;;;9.65;;
23300;SDS011;11819;51.394;12.340;2022-09-25T16:35:37;13.00;;;9.93;;
23300;SDS011;11819;51.394;12.340;2022-09-25T16:38:05;16.08;;;9.38;;
23300;SDS011;11819;51.394;12.340;2022-09-25T16:40:31;15.32;;;10.75;;